sensor_id;sensor_type;location;lat;lon;timestamp;P1;durP1;ratioP1;P2;durP2;ratioP2
29214;SDS011;16252;49.816;7.964;2023-02-15T00:02:22;25.92;;;12.85;;
29214;SDS011;16252;49.816;7.964;2023-02-15T00:04:49;25.40;;;12.48;;
29214;SDS011;16252;49.816;7.964;2023-02-15T00:07:15;24.75;;;11.88;;
29214;SDS011;16252;49.816;7.964;2023-02-15T00:09:41;24.65;;;12.50;;
29214;SDS011;16252;49.816;7.964;2023-02-15T00:12:07;30.90;;;13.85;;
29214;SDS011;16252;49.816;7.964;2023-02-15T00:14:34;27.92;;;14.52;;
29214;SDS011;16252;49.816;7.964;2023-02-15T00:16:59;24.05;;;12.43;;
29214;SDS011;16252;49.816;7.964;2023-02-15T00:19:25;27.08;;;12.73;;
29214;SDS011;16252;49.816;7.964;2023-02-15T00:21:50;24.38;;;12.48;;
29214;SDS011;16252;49.816;7.964;2023-02-15T00:24:17;27.25;;;13.48;;
29214;SDS011;16252;49.816;7.964;2023-02-15T00:26:43;24.15;;;12.05;;
29214;SDS011;16252;49.816;7.964;2023-02-15T00:29:10;23.98;;;11.88;;
29214;SDS011;16252;49.816;7.964;2023-02-15T00:31:36;26.50;;;12.32;;
29214;SDS011;16252;49.816;7.964;2023-02-15T00:34:03;24.08;;;12.18;;
29214;SDS011;16252;49.816;7.964;2023-02-15T00:36:29;26.92;;;12.70;;
29214;SDS011;16252;49.816;7.964;2023-02-15T00:38:55;28.13;;;13.15;;
29214;SDS011;16252;49.816;7.964;2023-02-15T00:41:20;25.83;;;12.50;;
29214;SDS011;16252;49.816;7.964;2023-02-15T00:43:46;24.95;;;12.23;;
29214;SDS011;16252;49.816;7.964;2023-02-15T00:46:11;26.80;;;12.48;;
29214;SDS011;16252;49.816;7.964;2023-02-15T00:48:36;27.10;;;13.32;;
29214;SDS011;16252;49.816;7.964;2023-02-15T00:51:01;25.10;;;12.38;;
29214;SDS011;16252;49.816;7.964;2023-02-15T00:53:27;23.77;;;12.20;;
29214;SDS011;16252;49.816;7.964;2023-02-15T00:55:53;27.40;;;12.30;;
29214;SDS011;16252;49.816;7.964;2023-02-15T00:58:19;29.58;;;13.40;;
29214;SDS011;16252;49.816;7.964;2023-02-15T01:00:45;28.33;;;12.82;;
29214;SDS011;16252;49.816;7.964;2023-02-15T01:03:11;27.77;;;13.38;;
29214;SDS011;16252;49.816;7.964;2023-02-15T01:05:40;25.30;;;12.32;;
29214;SDS011;16252;49.816;7.964;2023-02-15T01:08:06;24.08;;;12.57;;
29214;SDS011;16252;49.816;7.964;2023-02-15T01:10:31;25.02;;;12.18;;
29214;SDS011;16252;49.816;7.964;2023-02-15T01:12:58;27.33;;;11.95;;
29214;SDS011;16252;49.816;7.964;2023-02-15T01:15:24;26.13;;;11.93;;
29214;SDS011;16252;49.816;7.964;2023-02-15T01:17:49;21.75;;;10.75;;
29214;SDS011;16252;49.816;7.964;2023-02-15T01:20:22;21.33;;;11.05;;
29214;SDS011;16252;49.816;7.964;2023-02-15T01:22:50;23.02;;;11.32;;
29214;SDS011;16252;49.816;7.964;2023-02-15T01:25:16;27.33;;;12.18;;
29214;SDS011;16252;49.816;7.964;2023-02-15T01:27:43;23.20;;;12.05;;
29214;SDS011;16252;49.816;7.964;2023-02-15T01:30:09;21.30;;;11.00;;
29214;SDS011;16252;49.816;7.964;2023-02-15T01:32:35;22.83;;;11.23;;
29214;SDS011;16252;49.816;7.964;2023-02-15T01:35:01;25.50;;;11.93;;
29214;SDS011;16252;49.816;7.964;2023-02-15T01:37:27;26.27;;;12.05;;
29214;SDS011;16252;49.816;7.964;2023-02-15T01:39:52;26.45;;;12.35;;
29214;SDS011;16252;49.816;7.964;2023-02-15T01:42:24;25.17;;;12.07;;
29214;SDS011;16252;49.816;7.964;2023-02-15T01:44:53;26.38;;;12.70;;
29214;SDS011;16252;49.816;7.964;2023-02-15T01:47:30;24.00;;;11.43;;
29214;SDS011;16252;49.816;7.964;2023-02-15T01:50:02;25.20;;;12.07;;
29214;SDS011;16252;49.816;7.964;2023-02-15T01:52:33;23.95;;;11.77;;
29214;SDS011;16252;49.816;7.964;2023-02-15T01:55:02;26.95;;;12.35;;
29214;SDS011;16252;49.816;7.964;2023-02-15T01:57:31;27.98;;;12.65;;
29214;SDS011;16252;49.816;7.964;2023-02-15T01:59:57;24.85;;;11.85;;
29214;SDS011;16252;49.816;7.964;2023-02-15T02:02:25;22.45;;;11.50;;
29214;SDS011;16252;49.816;7.964;2023-02-15T02:04:53;28.67;;;12.50;;
29214;SDS011;16252;49.816;7.964;2023-02-15T02:07:23;24.17;;;10.88;;
29214;SDS011;16252;49.816;7.964;2023-02-15T02:09:52;23.20;;;11.73;;
29214;SDS011;16252;49.816;7.964;2023-02-15T02:12:17;23.67;;;11.75;;
29214;SDS011;16252;49.816;7.964;2023-02-15T02:14:45;22.77;;;11.80;;
29214;SDS011;16252;49.816;7.964;2023-02-15T02:17:37;23.45;;;11.95;;
29214;SDS011;16252;49.816;7.964;2023-02-15T02:34:15;18.25;;;10.02;;
29214;SDS011;16252;49.816;7.964;2023-02-15T02:37:08;17.90;;;9.18;;
29214;SDS011;16252;49.816;7.964;2023-02-15T02:42:18;23.40;;;11.32;;
29214;SDS011;16252;49.816;7.964;2023-02-15T02:44:54;22.05;;;10.65;;
29214;SDS011;16252;49.816;7.964;2023-02-15T02:50:28;21.13;;;9.40;;
29214;SDS011;16252;49.816;7.964;2023-02-15T02:52:55;21.83;;;10.90;;
29214;SDS011;16252;49.816;7.964;2023-02-15T02:55:32;19.05;;;9.65;;
29214;SDS011;16252;49.816;7.964;2023-02-15T02:58:04;23.23;;;10.50;;
29214;SDS011;16252;49.816;7.964;2023-02-15T03:00:37;22.90;;;11.63;;
29214;SDS011;16252;49.816;7.964;2023-02-15T03:03:09;26.23;;;11.65;;
29214;SDS011;16252;49.816;7.964;2023-02-15T03:05:41;21.88;;;10.82;;
29214;SDS011;16252;49.816;7.964;2023-02-15T03:08:10;20.33;;;10.52;;
29214;SDS011;16252;49.816;7.964;2023-02-15T03:10:46;20.35;;;11.13;;
29214;SDS011;16252;49.816;7.964;2023-02-15T03:13:15;22.60;;;11.25;;
29214;SDS011;16252;49.816;7.964;2023-02-15T03:15:41;20.75;;;10.55;;
29214;SDS011;16252;49.816;7.964;2023-02-15T03:18:29;20.70;;;11.32;;
29214;SDS011;16252;49.816;7.964;2023-02-15T03:20:58;22.55;;;10.90;;
29214;SDS011;16252;49.816;7.964;2023-02-15T03:23:27;23.15;;;11.43;;
29214;SDS011;16252;49.816;7.964;2023-02-15T03:25:56;19.42;;;10.27;;
29214;SDS011;16252;49.816;7.964;2023-02-15T03:28:27;17.83;;;9.27;;
29214;SDS011;16252;49.816;7.964;2023-02-15T03:30:58;20.60;;;9.68;;
29214;SDS011;16252;49.816;7.964;2023-02-15T03:33:26;17.80;;;9.30;;
29214;SDS011;16252;49.816;7.964;2023-02-15T03:38:34;19.67;;;9.82;;
29214;SDS011;16252;49.816;7.964;2023-02-15T03:41:05;20.88;;;10.13;;
29214;SDS011;16252;49.816;7.964;2023-02-15T03:46:16;15.75;;;8.52;;
29214;SDS011;16252;49.816;7.964;2023-02-15T03:48:49;17.45;;;9.00;;
29214;SDS011;16252;49.816;7.964;2023-02-15T03:51:18;21.73;;;10.23;;
29214;SDS011;16252;49.816;7.964;2023-02-15T03:54:03;21.70;;;9.63;;
29214;SDS011;16252;49.816;7.964;2023-02-15T03:56:38;19.88;;;9.85;;
29214;SDS011;16252;49.816;7.964;2023-02-15T03:59:06;21.05;;;9.93;;
29214;SDS011;16252;49.816;7.964;2023-02-15T04:02:04;19.10;;;9.48;;
29214;SDS011;16252;49.816;7.964;2023-02-15T04:04:41;17.95;;;9.60;;
29214;SDS011;16252;49.816;7.964;2023-02-15T04:07:10;20.23;;;7.15;;
29214;SDS011;16252;49.816;7.964;2023-02-15T04:09:36;15.98;;;8.00;;
29214;SDS011;16252;49.816;7.964;2023-02-15T04:12:20;17.75;;;8.88;;
29214;SDS011;16252;49.816;7.964;2023-02-15T04:14:46;20.52;;;10.07;;
29214;SDS011;16252;49.816;7.964;2023-02-15T04:17:30;22.02;;;9.48;;
29214;SDS011;16252;49.816;7.964;2023-02-15T04:19:55;19.58;;;9.15;;
29214;SDS011;16252;49.816;7.964;2023-02-15T04:22:39;17.98;;;8.90;;
29214;SDS011;16252;49.816;7.964;2023-02-15T04:25:24;18.60;;;9.35;;
29214;SDS011;16252;49.816;7.964;2023-02-15T04:27:50;20.00;;;9.85;;
29214;SDS011;16252;49.816;7.964;2023-02-15T04:30:18;21.77;;;10.20;;
29214;SDS011;16252;49.816;7.964;2023-02-15T04:32:45;18.50;;;9.23;;
29214;SDS011;16252;49.816;7.964;2023-02-15T04:35:10;20.33;;;10.40;;
29214;SDS011;16252;49.816;7.964;2023-02-15T04:37:36;19.98;;;9.98;;
29214;SDS011;16252;49.816;7.964;2023-02-15T04:40:03;21.55;;;10.55;;
29214;SDS011;16252;49.816;7.964;2023-02-15T04:42:30;19.45;;;9.70;;
29214;SDS011;16252;49.816;7.964;2023-02-15T04:44:55;21.35;;;10.13;;
29214;SDS011;16252;49.816;7.964;2023-02-15T04:47:21;21.67;;;9.95;;
29214;SDS011;16252;49.816;7.964;2023-02-15T04:49:46;19.63;;;9.55;;
29214;SDS011;16252;49.816;7.964;2023-02-15T04:52:12;22.52;;;11.18;;
29214;SDS011;16252;49.816;7.964;2023-02-15T04:54:37;20.40;;;10.27;;
29214;SDS011;16252;49.816;7.964;2023-02-15T04:57:03;19.33;;;10.27;;
29214;SDS011;16252;49.816;7.964;2023-02-15T04:59:29;22.00;;;9.70;;
29214;SDS011;16252;49.816;7.964;2023-02-15T05:01:54;20.88;;;10.13;;
29214;SDS011;16252;49.816;7.964;2023-02-15T05:04:19;19.67;;;9.98;;
29214;SDS011;16252;49.816;7.964;2023-02-15T05:06:44;18.92;;;9.70;;
29214;SDS011;16252;49.816;7.964;2023-02-15T05:09:11;19.40;;;10.25;;
29214;SDS011;16252;49.816;7.964;2023-02-15T05:11:37;19.75;;;10.18;;
29214;SDS011;16252;49.816;7.964;2023-02-15T05:14:02;20.48;;;10.00;;
29214;SDS011;16252;49.816;7.964;2023-02-15T05:16:30;18.45;;;9.77;;
29214;SDS011;16252;49.816;7.964;2023-02-15T05:18:56;18.58;;;9.75;;
29214;SDS011;16252;49.816;7.964;2023-02-15T05:21:21;21.33;;;9.75;;
29214;SDS011;16252;49.816;7.964;2023-02-15T05:23:46;17.92;;;9.18;;
29214;SDS011;16252;49.816;7.964;2023-02-15T05:26:12;20.60;;;10.43;;
29214;SDS011;16252;49.816;7.964;2023-02-15T05:31:27;15.30;;;7.75;;
29214;SDS011;16252;49.816;7.964;2023-02-15T05:33:53;15.02;;;8.05;;
29214;SDS011;16252;49.816;7.964;2023-02-15T05:36:18;18.25;;;9.50;;
29214;SDS011;16252;49.816;7.964;2023-02-15T05:38:43;17.77;;;9.15;;
29214;SDS011;16252;49.816;7.964;2023-02-15T05:41:09;17.10;;;8.65;;
29214;SDS011;16252;49.816;7.964;2023-02-15T05:43:36;17.58;;;9.05;;
29214;SDS011;16252;49.816;7.964;2023-02-15T05:46:02;17.73;;;9.35;;
29214;SDS011;16252;49.816;7.964;2023-02-15T05:48:30;16.75;;;8.95;;
29214;SDS011;16252;49.816;7.964;2023-02-15T05:50:57;16.42;;;8.38;;
29214;SDS011;16252;49.816;7.964;2023-02-15T05:53:35;18.35;;;9.85;;
29214;SDS011;16252;49.816;7.964;2023-02-15T05:56:02;16.38;;;9.23;;
29214;SDS011;16252;49.816;7.964;2023-02-15T05:58:29;16.13;;;8.65;;
29214;SDS011;16252;49.816;7.964;2023-02-15T06:00:56;16.88;;;9.25;;
29214;SDS011;16252;49.816;7.964;2023-02-15T06:03:22;17.13;;;8.80;;
29214;SDS011;16252;49.816;7.964;2023-02-15T06:05:48;18.00;;;8.43;;
29214;SDS011;16252;49.816;7.964;2023-02-15T06:08:14;15.73;;;8.18;;
29214;SDS011;16252;49.816;7.964;2023-02-15T06:10:39;16.17;;;9.13;;
29214;SDS011;16252;49.816;7.964;2023-02-15T06:13:05;16.25;;;8.88;;
29214;SDS011;16252;49.816;7.964;2023-02-15T06:15:31;13.98;;;7.53;;
29214;SDS011;16252;49.816;7.964;2023-02-15T06:17:56;12.90;;;6.95;;
29214;SDS011;16252;49.816;7.964;2023-02-15T06:20:21;12.13;;;6.60;;
29214;SDS011;16252;49.816;7.964;2023-02-15T06:22:47;13.90;;;6.97;;
29214;SDS011;16252;49.816;7.964;2023-02-15T06:25:12;15.45;;;7.82;;
29214;SDS011;16252;49.816;7.964;2023-02-15T06:27:40;14.57;;;7.30;;
29214;SDS011;16252;49.816;7.964;2023-02-15T06:30:07;13.35;;;7.43;;
29214;SDS011;16252;49.816;7.964;2023-02-15T06:32:33;14.85;;;7.63;;
29214;SDS011;16252;49.816;7.964;2023-02-15T06:34:59;21.90;;;9.10;;
29214;SDS011;16252;49.816;7.964;2023-02-15T06:37:24;17.35;;;8.52;;
29214;SDS011;16252;49.816;7.964;2023-02-15T06:39:50;15.77;;;8.38;;
29214;SDS011;16252;49.816;7.964;2023-02-15T06:42:15;14.05;;;7.70;;
29214;SDS011;16252;49.816;7.964;2023-02-15T06:44:42;14.23;;;7.93;;
29214;SDS011;16252;49.816;7.964;2023-02-15T06:47:08;13.38;;;7.22;;
29214;SDS011;16252;49.816;7.964;2023-02-15T06:49:33;14.68;;;7.20;;
29214;SDS011;16252;49.816;7.964;2023-02-15T06:51:59;11.70;;;6.68;;
29214;SDS011;16252;49.816;7.964;2023-02-15T06:54:24;11.93;;;7.20;;
29214;SDS011;16252;49.816;7.964;2023-02-15T06:56:49;14.88;;;7.65;;
29214;SDS011;16252;49.816;7.964;2023-02-15T06:59:15;13.23;;;6.82;;
29214;SDS011;16252;49.816;7.964;2023-02-15T07:01:40;14.30;;;7.55;;
29214;SDS011;16252;49.816;7.964;2023-02-15T07:04:05;14.10;;;8.38;;
29214;SDS011;16252;49.816;7.964;2023-02-15T07:06:31;12.25;;;7.35;;
29214;SDS011;16252;49.816;7.964;2023-02-15T07:09:00;12.57;;;7.07;;
29214;SDS011;16252;49.816;7.964;2023-02-15T07:11:25;14.82;;;8.60;;
29214;SDS011;16252;49.816;7.964;2023-02-15T07:14:09;14.75;;;7.82;;
29214;SDS011;16252;49.816;7.964;2023-02-15T07:16:34;12.48;;;6.78;;
29214;SDS011;16252;49.816;7.964;2023-02-15T07:19:00;13.40;;;7.72;;
29214;SDS011;16252;49.816;7.964;2023-02-15T07:21:25;15.55;;;8.18;;
29214;SDS011;16252;49.816;7.964;2023-02-15T07:23:50;12.48;;;7.18;;
29214;SDS011;16252;49.816;7.964;2023-02-15T07:26:15;17.38;;;9.02;;
29214;SDS011;16252;49.816;7.964;2023-02-15T07:28:41;17.27;;;8.98;;
29214;SDS011;16252;49.816;7.964;2023-02-15T07:31:06;16.80;;;9.15;;
29214;SDS011;16252;49.816;7.964;2023-02-15T07:33:32;15.52;;;8.63;;
29214;SDS011;16252;49.816;7.964;2023-02-15T07:35:59;14.07;;;8.15;;
29214;SDS011;16252;49.816;7.964;2023-02-15T07:38:27;17.55;;;8.63;;
29214;SDS011;16252;49.816;7.964;2023-02-15T07:41:01;13.32;;;7.75;;
29214;SDS011;16252;49.816;7.964;2023-02-15T07:43:29;15.68;;;7.75;;
29214;SDS011;16252;49.816;7.964;2023-02-15T07:46:05;14.90;;;8.35;;
29214;SDS011;16252;49.816;7.964;2023-02-15T07:48:35;15.88;;;7.97;;
29214;SDS011;16252;49.816;7.964;2023-02-15T07:51:01;13.63;;;7.40;;
29214;SDS011;16252;49.816;7.964;2023-02-15T07:53:28;13.73;;;7.82;;
29214;SDS011;16252;49.816;7.964;2023-02-15T07:55:54;14.73;;;7.65;;
29214;SDS011;16252;49.816;7.964;2023-02-15T07:58:23;9.27;;;5.03;;
29214;SDS011;16252;49.816;7.964;2023-02-15T08:01:09;12.70;;;7.53;;
29214;SDS011;16252;49.816;7.964;2023-02-15T08:03:34;16.45;;;7.80;;
29214;SDS011;16252;49.816;7.964;2023-02-15T08:05:59;10.88;;;7.15;;
29214;SDS011;16252;49.816;7.964;2023-02-15T08:08:25;13.05;;;7.20;;
29214;SDS011;16252;49.816;7.964;2023-02-15T08:13:54;12.95;;;7.30;;
29214;SDS011;16252;49.816;7.964;2023-02-15T08:16:24;12.52;;;6.97;;
29214;SDS011;16252;49.816;7.964;2023-02-15T08:18:50;14.02;;;7.00;;
29214;SDS011;16252;49.816;7.964;2023-02-15T08:21:17;12.48;;;6.95;;
29214;SDS011;16252;49.816;7.964;2023-02-15T08:23:43;9.95;;;6.55;;
29214;SDS011;16252;49.816;7.964;2023-02-15T08:26:08;12.25;;;7.10;;
29214;SDS011;16252;49.816;7.964;2023-02-15T08:28:33;12.38;;;7.43;;
29214;SDS011;16252;49.816;7.964;2023-02-15T08:31:08;14.10;;;8.27;;
29214;SDS011;16252;49.816;7.964;2023-02-15T08:33:35;12.27;;;7.78;;
29214;SDS011;16252;49.816;7.964;2023-02-15T08:36:05;15.93;;;7.85;;
29214;SDS011;16252;49.816;7.964;2023-02-15T08:38:36;12.95;;;7.70;;
29214;SDS011;16252;49.816;7.964;2023-02-15T08:41:11;12.15;;;7.75;;
29214;SDS011;16252;49.816;7.964;2023-02-15T08:43:45;13.70;;;7.05;;
29214;SDS011;16252;49.816;7.964;2023-02-15T08:46:13;12.40;;;7.50;;
29214;SDS011;16252;49.816;7.964;2023-02-15T08:48:40;11.95;;;6.53;;
29214;SDS011;16252;49.816;7.964;2023-02-15T08:51:06;11.18;;;7.32;;
29214;SDS011;16252;49.816;7.964;2023-02-15T08:53:43;13.80;;;7.63;;
29214;SDS011;16252;49.816;7.964;2023-02-15T08:56:13;10.60;;;6.05;;
29214;SDS011;16252;49.816;7.964;2023-02-15T08:58:39;13.15;;;7.45;;
29214;SDS011;16252;49.816;7.964;2023-02-15T09:01:09;12.25;;;7.25;;
29214;SDS011;16252;49.816;7.964;2023-02-15T09:03:35;11.82;;;7.32;;
29214;SDS011;16252;49.816;7.964;2023-02-15T09:06:01;11.80;;;6.95;;
29214;SDS011;16252;49.816;7.964;2023-02-15T09:08:27;8.77;;;6.40;;
29214;SDS011;16252;49.816;7.964;2023-02-15T09:10:52;11.10;;;7.28;;
29214;SDS011;16252;49.816;7.964;2023-02-15T09:13:18;11.05;;;6.47;;
29214;SDS011;16252;49.816;7.964;2023-02-15T09:15:45;9.85;;;6.65;;
29214;SDS011;16252;49.816;7.964;2023-02-15T09:18:10;14.95;;;8.35;;
29214;SDS011;16252;49.816;7.964;2023-02-15T09:20:37;15.18;;;9.15;;
29214;SDS011;16252;49.816;7.964;2023-02-15T09:23:02;13.80;;;7.72;;
29214;SDS011;16252;49.816;7.964;2023-02-15T09:25:28;18.00;;;9.93;;
29214;SDS011;16252;49.816;7.964;2023-02-15T09:27:53;19.17;;;10.48;;
29214;SDS011;16252;49.816;7.964;2023-02-15T09:30:19;16.17;;;9.00;;
29214;SDS011;16252;49.816;7.964;2023-02-15T09:32:44;14.27;;;7.90;;
29214;SDS011;16252;49.816;7.964;2023-02-15T09:35:11;12.38;;;8.27;;
29214;SDS011;16252;49.816;7.964;2023-02-15T09:37:36;12.93;;;7.30;;
29214;SDS011;16252;49.816;7.964;2023-02-15T09:40:02;11.15;;;7.13;;
29214;SDS011;16252;49.816;7.964;2023-02-15T09:45:37;11.63;;;7.13;;
29214;SDS011;16252;49.816;7.964;2023-02-15T09:48:20;11.77;;;7.53;;
29214;SDS011;16252;49.816;7.964;2023-02-15T09:56:48;15.98;;;8.65;;
29214;SDS011;16252;49.816;7.964;2023-02-15T10:04:40;14.88;;;7.93;;
29214;SDS011;16252;49.816;7.964;2023-02-15T10:07:16;17.08;;;9.43;;
29214;SDS011;16252;49.816;7.964;2023-02-15T10:15:57;64.85;;;24.08;;
29214;SDS011;16252;49.816;7.964;2023-02-15T10:18:49;36.05;;;16.05;;
29214;SDS011;16252;49.816;7.964;2023-02-15T10:21:36;18.40;;;10.82;;
29214;SDS011;16252;49.816;7.964;2023-02-15T10:24:21;18.70;;;9.32;;
29214;SDS011;16252;49.816;7.964;2023-02-15T10:27:09;15.35;;;9.15;;
29214;SDS011;16252;49.816;7.964;2023-02-15T10:29:38;15.65;;;8.52;;
29214;SDS011;16252;49.816;7.964;2023-02-15T10:45:25;11.95;;;7.80;;
29214;SDS011;16252;49.816;7.964;2023-02-15T10:50:34;9.85;;;5.50;;
29214;SDS011;16252;49.816;7.964;2023-02-15T10:53:31;10.15;;;5.97;;
29214;SDS011;16252;49.816;7.964;2023-02-15T10:56:12;9.75;;;5.95;;
29214;SDS011;16252;49.816;7.964;2023-02-15T11:01:53;9.85;;;6.63;;
29214;SDS011;16252;49.816;7.964;2023-02-15T11:04:48;12.23;;;7.18;;
29214;SDS011;16252;49.816;7.964;2023-02-15T11:07:22;11.82;;;7.55;;
29214;SDS011;16252;49.816;7.964;2023-02-15T11:12:21;12.63;;;6.53;;
29214;SDS011;16252;49.816;7.964;2023-02-15T11:14:55;12.75;;;6.93;;
29214;SDS011;16252;49.816;7.964;2023-02-15T11:17:26;10.55;;;6.70;;
29214;SDS011;16252;49.816;7.964;2023-02-15T11:20:02;12.25;;;7.72;;
29214;SDS011;16252;49.816;7.964;2023-02-15T11:22:39;11.02;;;7.53;;
29214;SDS011;16252;49.816;7.964;2023-02-15T11:25:14;13.40;;;8.68;;
29214;SDS011;16252;49.816;7.964;2023-02-15T11:27:43;13.45;;;8.23;;
29214;SDS011;16252;49.816;7.964;2023-02-15T11:30:22;12.67;;;7.43;;
29214;SDS011;16252;49.816;7.964;2023-02-15T11:32:50;13.88;;;8.60;;
29214;SDS011;16252;49.816;7.964;2023-02-15T11:35:30;18.33;;;9.48;;
29214;SDS011;16252;49.816;7.964;2023-02-15T11:38:13;14.13;;;8.48;;
29214;SDS011;16252;49.816;7.964;2023-02-15T11:40:54;16.35;;;9.13;;
29214;SDS011;16252;49.816;7.964;2023-02-15T11:45:55;14.73;;;9.10;;
29214;SDS011;16252;49.816;7.964;2023-02-15T11:48:20;15.35;;;9.57;;
29214;SDS011;16252;49.816;7.964;2023-02-15T11:50:45;13.88;;;8.52;;
29214;SDS011;16252;49.816;7.964;2023-02-15T11:55:46;15.77;;;9.43;;
29214;SDS011;16252;49.816;7.964;2023-02-15T12:01:37;14.45;;;8.98;;
29214;SDS011;16252;49.816;7.964;2023-02-15T12:10:20;14.57;;;9.00;;
29214;SDS011;16252;49.816;7.964;2023-02-15T12:12:54;15.38;;;9.18;;
29214;SDS011;16252;49.816;7.964;2023-02-15T12:15:34;15.55;;;9.57;;
29214;SDS011;16252;49.816;7.964;2023-02-15T12:18:01;16.63;;;10.35;;
29214;SDS011;16252;49.816;7.964;2023-02-15T12:20:32;16.73;;;9.75;;
29214;SDS011;16252;49.816;7.964;2023-02-15T12:23:00;16.73;;;10.77;;
29214;SDS011;16252;49.816;7.964;2023-02-15T12:25:33;17.65;;;10.65;;
29214;SDS011;16252;49.816;7.964;2023-02-15T12:28:01;17.67;;;10.70;;
29214;SDS011;16252;49.816;7.964;2023-02-15T12:30:30;16.33;;;10.75;;
29214;SDS011;16252;49.816;7.964;2023-02-15T12:33:13;19.33;;;11.50;;
29214;SDS011;16252;49.816;7.964;2023-02-15T12:35:42;19.60;;;11.77;;
29214;SDS011;16252;49.816;7.964;2023-02-15T12:40:34;19.63;;;12.32;;
29214;SDS011;16252;49.816;7.964;2023-02-15T12:43:00;20.38;;;12.27;;
29214;SDS011;16252;49.816;7.964;2023-02-15T12:45:34;21.33;;;11.30;;
29214;SDS011;16252;49.816;7.964;2023-02-15T12:48:08;25.42;;;13.07;;
29214;SDS011;16252;49.816;7.964;2023-02-15T12:50:37;19.55;;;12.50;;
29214;SDS011;16252;49.816;7.964;2023-02-15T12:53:06;20.25;;;12.52;;
29214;SDS011;16252;49.816;7.964;2023-02-15T12:55:50;20.10;;;12.68;;
29214;SDS011;16252;49.816;7.964;2023-02-15T12:58:19;20.20;;;11.07;;
29214;SDS011;16252;49.816;7.964;2023-02-15T13:00:47;19.52;;;11.20;;
29214;SDS011;16252;49.816;7.964;2023-02-15T13:03:20;16.58;;;10.52;;
29214;SDS011;16252;49.816;7.964;2023-02-15T13:05:52;19.45;;;10.88;;
29214;SDS011;16252;49.816;7.964;2023-02-15T13:08:21;17.73;;;10.90;;
29214;SDS011;16252;49.816;7.964;2023-02-15T13:10:53;21.70;;;12.63;;
29214;SDS011;16252;49.816;7.964;2023-02-15T13:13:24;16.20;;;10.43;;
29214;SDS011;16252;49.816;7.964;2023-02-15T13:15:53;19.45;;;11.88;;
29214;SDS011;16252;49.816;7.964;2023-02-15T13:18:33;20.83;;;11.60;;
29214;SDS011;16252;49.816;7.964;2023-02-15T13:21:06;20.92;;;11.95;;
29214;SDS011;16252;49.816;7.964;2023-02-15T13:23:37;18.35;;;11.45;;
29214;SDS011;16252;49.816;7.964;2023-02-15T13:26:05;20.95;;;12.38;;
29214;SDS011;16252;49.816;7.964;2023-02-15T13:28:40;22.48;;;12.05;;
29214;SDS011;16252;49.816;7.964;2023-02-15T13:31:11;23.05;;;13.40;;
29214;SDS011;16252;49.816;7.964;2023-02-15T13:33:39;24.47;;;13.53;;
29214;SDS011;16252;49.816;7.964;2023-02-15T13:39:04;26.20;;;14.95;;
29214;SDS011;16252;49.816;7.964;2023-02-15T13:41:39;25.23;;;14.52;;
29214;SDS011;16252;49.816;7.964;2023-02-15T13:52:26;21.83;;;12.55;;
29214;SDS011;16252;49.816;7.964;2023-02-15T14:03:35;28.40;;;15.98;;
29214;SDS011;16252;49.816;7.964;2023-02-15T14:06:14;24.50;;;14.10;;
29214;SDS011;16252;49.816;7.964;2023-02-15T14:26:31;23.98;;;14.60;;
29214;SDS011;16252;49.816;7.964;2023-02-15T14:31:46;26.25;;;14.00;;
29214;SDS011;16252;49.816;7.964;2023-02-15T14:34:18;28.60;;;15.73;;
29214;SDS011;16252;49.816;7.964;2023-02-15T14:36:49;28.88;;;15.70;;
29214;SDS011;16252;49.816;7.964;2023-02-15T14:45:33;28.90;;;15.85;;
29214;SDS011;16252;49.816;7.964;2023-02-15T14:48:16;32.83;;;16.58;;
29214;SDS011;16252;49.816;7.964;2023-02-15T14:50:49;31.17;;;15.48;;
29214;SDS011;16252;49.816;7.964;2023-02-15T14:58:56;27.27;;;15.90;;
29214;SDS011;16252;49.816;7.964;2023-02-15T15:01:27;30.02;;;16.15;;
29214;SDS011;16252;49.816;7.964;2023-02-15T15:04:02;30.77;;;16.35;;
29214;SDS011;16252;49.816;7.964;2023-02-15T15:06:32;31.90;;;16.83;;
29214;SDS011;16252;49.816;7.964;2023-02-15T15:09:05;31.98;;;17.10;;
29214;SDS011;16252;49.816;7.964;2023-02-15T15:11:47;31.77;;;16.60;;
29214;SDS011;16252;49.816;7.964;2023-02-15T15:14:36;32.45;;;16.70;;
29214;SDS011;16252;49.816;7.964;2023-02-15T15:17:03;33.22;;;16.88;;
29214;SDS011;16252;49.816;7.964;2023-02-15T15:19:56;34.70;;;18.02;;
29214;SDS011;16252;49.816;7.964;2023-02-15T15:22:23;36.20;;;17.88;;
29214;SDS011;16252;49.816;7.964;2023-02-15T15:24:51;35.67;;;18.45;;
29214;SDS011;16252;49.816;7.964;2023-02-15T15:27:39;33.03;;;17.83;;
29214;SDS011;16252;49.816;7.964;2023-02-15T15:35:23;33.15;;;18.38;;
29214;SDS011;16252;49.816;7.964;2023-02-15T15:41:01;36.65;;;18.90;;
29214;SDS011;16252;49.816;7.964;2023-02-15T15:50:16;35.95;;;17.90;;
29214;SDS011;16252;49.816;7.964;2023-02-15T15:52:48;41.38;;;21.05;;
29214;SDS011;16252;49.816;7.964;2023-02-15T15:55:21;36.28;;;19.17;;
29214;SDS011;16252;49.816;7.964;2023-02-15T15:57:49;35.60;;;18.48;;
29214;SDS011;16252;49.816;7.964;2023-02-15T16:03:01;34.97;;;18.60;;
29214;SDS011;16252;49.816;7.964;2023-02-15T16:05:34;34.97;;;18.80;;
29214;SDS011;16252;49.816;7.964;2023-02-15T16:08:00;33.05;;;18.27;;
29214;SDS011;16252;49.816;7.964;2023-02-15T16:10:27;35.97;;;18.60;;
29214;SDS011;16252;49.816;7.964;2023-02-15T16:12:54;37.30;;;18.92;;
29214;SDS011;16252;49.816;7.964;2023-02-15T16:15:21;37.60;;;18.95;;
29214;SDS011;16252;49.816;7.964;2023-02-15T16:17:50;37.53;;;18.58;;
29214;SDS011;16252;49.816;7.964;2023-02-15T16:20:21;35.50;;;19.17;;
29214;SDS011;16252;49.816;7.964;2023-02-15T16:22:49;36.90;;;19.23;;
29214;SDS011;16252;49.816;7.964;2023-02-15T16:26:02;36.25;;;18.55;;
29214;SDS011;16252;49.816;7.964;2023-02-15T16:28:52;33.97;;;17.35;;
29214;SDS011;16252;49.816;7.964;2023-02-15T16:31:19;39.35;;;18.63;;
29214;SDS011;16252;49.816;7.964;2023-02-15T16:33:47;38.25;;;18.20;;
29214;SDS011;16252;49.816;7.964;2023-02-15T16:36:23;39.90;;;18.65;;
29214;SDS011;16252;49.816;7.964;2023-02-15T16:41:15;34.45;;;19.00;;
29214;SDS011;16252;49.816;7.964;2023-02-15T16:43:45;36.80;;;19.23;;
29214;SDS011;16252;49.816;7.964;2023-02-15T16:46:15;34.63;;;17.67;;
29214;SDS011;16252;49.816;7.964;2023-02-15T16:48:44;36.90;;;18.00;;
29214;SDS011;16252;49.816;7.964;2023-02-15T16:51:18;30.13;;;16.13;;
29214;SDS011;16252;49.816;7.964;2023-02-15T16:53:53;31.48;;;16.15;;
29214;SDS011;16252;49.816;7.964;2023-02-15T16:56:24;32.75;;;16.27;;
29214;SDS011;16252;49.816;7.964;2023-02-15T16:58:52;32.03;;;16.38;;
29214;SDS011;16252;49.816;7.964;2023-02-15T17:01:20;32.65;;;16.27;;
29214;SDS011;16252;49.816;7.964;2023-02-15T17:03:49;31.17;;;16.50;;
29214;SDS011;16252;49.816;7.964;2023-02-15T17:06:23;37.58;;;18.05;;
29214;SDS011;16252;49.816;7.964;2023-02-15T17:09:02;33.67;;;17.67;;
29214;SDS011;16252;49.816;7.964;2023-02-15T17:11:40;30.52;;;17.42;;
29214;SDS011;16252;49.816;7.964;2023-02-15T17:14:10;30.75;;;16.75;;
29214;SDS011;16252;49.816;7.964;2023-02-15T17:16:43;30.58;;;15.82;;
29214;SDS011;16252;49.816;7.964;2023-02-15T17:19:18;32.03;;;17.60;;
29214;SDS011;16252;49.816;7.964;2023-02-15T17:21:48;38.15;;;18.60;;
29214;SDS011;16252;49.816;7.964;2023-02-15T17:24:28;29.75;;;15.30;;
29214;SDS011;16252;49.816;7.964;2023-02-15T17:27:03;28.35;;;14.82;;
29214;SDS011;16252;49.816;7.964;2023-02-15T17:29:39;29.27;;;15.38;;